HomeShort term forecast

Short term forecast

Graphical weather forecast for the next 48 hours for Montreal:

Short term forecast

This weather forecast is automatically refreshed every 3 hours.

Hourly Experimental Forecast for the next 48 hours ®

Overall summary: Mostly cloudy throughout the day.

 Date & Hour   Temp   Feel   Baro   Hum   Speed & Bearing   Wind Gust   Precip.%   Precip.   Visibility   Cloud cover   Conditions 
 05/03/2021 - 13:00  -9.3°C  -17.8°C  1008.6 hPa  64%  25.0 km/h   36.9 km/h  9%  0.03 mm/h  16.1km  92%  Overcast 
 05/03/2021 - 14:00  -8.8°C  -17.0°C  1008.7 hPa  67%  23.8 km/h   36.3 km/h  8%  0.05 mm/h  11.4km  96%  Overcast 
 05/03/2021 - 15:00  -8.3°C  -16.2°C  1008.9 hPa  67%  22.5 km/h   35.8 km/h  6%  0.04 mm/h  11.6km  99%  Overcast 
 05/03/2021 - 16:00  -7.9°C  -15.5°C  1009.2 hPa  64%  21.4 km/h   35.3 km/h  7%  0.05 mm/h  16.1km  100%  Overcast 
 05/03/2021 - 17:00  -8.2°C  -15.4°C  1009.6 hPa  64%  19.4 km/h   34.4 km/h  4%  0.01 mm/h  16.1km  97%  Overcast 
 05/03/2021 - 18:00  -8.8°C  -15.7°C  1010.3 hPa  67%  17.3 km/h   34.7 km/h  3%  0.01 mm/h  16.1km  89%  Overcast 
 05/03/2021 - 19:00  -9.3°C  -16.1°C  1011.1 hPa  69%  15.7 km/h   34.5 km/h  2%  0.03 mm/h  16.1km  82%  Mostly Cloudy 
 05/03/2021 - 20:00  -9.9°C  -16.7°C  1011.5 hPa  71%  15.4 km/h   34.6 km/h  2%  0.04 mm/h  16.1km  59%  Partly Cloudy 
 05/03/2021 - 21:00  -10.4°C  -17.3°C  1011.8 hPa  73%  15.3 km/h   33.2 km/h  0%  --  16.1km  58%  Partly Cloudy 
 05/03/2021 - 22:00  -11.0°C  -17.9°C  1012.2 hPa  75%  14.6 km/h   31.5 km/h  0%  --  16.1km  43%  Partly Cloudy 
 05/03/2021 - 23:00  -11.6°C  -18.5°C  1012.4 hPa  76%  14.5 km/h   31.1 km/h  2%  0.04 mm/h  16.1km  49%  Partly Cloudy 
 06/03/2021 - 00:00  -11.9°C  -19.1°C  1012.4 hPa  78%  14.9 km/h   31.4 km/h  1%  0.01 mm/h  16.1km  55%  Partly Cloudy 
 06/03/2021 - 01:00  -11.9°C  -19.1°C  1012.8 hPa  79%  15.0 km/h   31.3 km/h  1%  0.01 mm/h  16.1km  60%  Mostly Cloudy 
 06/03/2021 - 02:00  -12.9°C  -20.3°C  1013.3 hPa  81%  14.9 km/h   31.9 km/h  1%  0.01 mm/h  16.1km  33%  Partly Cloudy 
 06/03/2021 - 03:00  -13.5°C  -21.0°C  1013.7 hPa  82%  14.9 km/h   33.8 km/h  0%  --  16.1km  28%  Clear 
 06/03/2021 - 04:00  -13.9°C  -21.4°C  1014.0 hPa  82%  14.8 km/h   34.3 km/h  0%  --  16.1km  26%  Clear 
 06/03/2021 - 05:00  -14.2°C  -21.8°C  1014.4 hPa  82%  14.7 km/h   34.0 km/h  0%  --  16.1km  37%  Partly Cloudy 
 06/03/2021 - 06:00  -14.4°C  -22.1°C  1014.8 hPa  82%  14.9 km/h   34.4 km/h  0%  --  16.1km  38%  Partly Cloudy 
 06/03/2021 - 07:00  -13.8°C  -21.5°C  1015.6 hPa  82%  15.3 km/h   35.6 km/h  0%  --  16.1km  37%  Partly Cloudy 
 06/03/2021 - 08:00  -12.9°C  -20.7°C  1016.4 hPa  82%  16.7 km/h   33.5 km/h  0%  --  9.4km  57%  Partly Cloudy 
 06/03/2021 - 09:00  -11.6°C  -19.4°C  1016.4 hPa  80%  18.0 km/h   31.0 km/h  4%  0.02 mm/h  11.0km  67%  Mostly Cloudy 
 06/03/2021 - 10:00  -10.4°C  -18.2°C  1016.4 hPa  79%  19.4 km/h   29.9 km/h  4%  0.01 mm/h  13.4km  68%  Mostly Cloudy 
 06/03/2021 - 11:00  -9.5°C  -17.2°C  1016.7 hPa  78%  20.3 km/h   29.4 km/h  6%  0.01 mm/h  15.0km  73%  Mostly Cloudy 
 06/03/2021 - 12:00  -8.8°C  -16.5°C  1016.7 hPa  78%  20.8 km/h   29.8 km/h  6%  0.01 mm/h  14.6km  77%  Mostly Cloudy 
 06/03/2021 - 13:00  -8.5°C  -16.3°C  1016.5 hPa  77%  21.5 km/h   29.8 km/h  7%  0.01 mm/h  13.0km  79%  Mostly Cloudy 
 06/03/2021 - 14:00  -7.7°C  -15.2°C  1016.5 hPa  75%  21.5 km/h   30.3 km/h  7%  0.01 mm/h  13.6km  86%  Mostly Cloudy 
 06/03/2021 - 15:00  -6.8°C  -14.0°C  1016.6 hPa  73%  21.1 km/h   30.9 km/h  6%  0.01 mm/h  14.1km  93%  Overcast 
 06/03/2021 - 16:00  -6.3°C  -13.1°C  1017.0 hPa  72%  19.8 km/h   31.2 km/h  7%  0.01 mm/h  15.5km  98%  Overcast 
 06/03/2021 - 17:00  -6.4°C  -12.8°C  1017.6 hPa  74%  17.4 km/h   32.2 km/h  6%  0.01 mm/h  16.1km  97%  Overcast 
 06/03/2021 - 18:00  -7.2°C  -13.2°C  1018.6 hPa  77%  14.9 km/h   33.3 km/h  3%  0.01 mm/h  16.1km  84%  Mostly Cloudy 
 06/03/2021 - 19:00  -8.6°C  -14.5°C  1019.6 hPa  78%  13.1 km/h   27.7 km/h  2%  0.01 mm/h  15.1km  58%  Partly Cloudy 
 06/03/2021 - 20:00  -9.5°C  -15.3°C  1020.5 hPa  77%  12.1 km/h   25.0 km/h  0%  --  16.1km  69%  Mostly Cloudy 
 06/03/2021 - 21:00  -10.3°C  -16.1°C  1021.2 hPa  76%  11.7 km/h   21.2 km/h  0%  --  16.1km  68%  Mostly Cloudy 
 06/03/2021 - 22:00  -10.8°C  -16.8°C  1021.6 hPa  75%  11.7 km/h   20.9 km/h  0%  --  16.1km  58%  Partly Cloudy 
 06/03/2021 - 23:00  -11.4°C  -17.4°C  1021.9 hPa  76%  11.4 km/h   19.7 km/h  0%  --  16.1km  56%  Partly Cloudy 
 07/03/2021 - 00:00  -11.9°C  -17.9°C  1022.5 hPa  77%  11.0 km/h   17.6 km/h  0%  --  16.1km  34%  Partly Cloudy 
 07/03/2021 - 01:00  -11.9°C  -17.6°C  1022.3 hPa  79%  10.2 km/h   15.7 km/h  0%  --  16.1km  32%  Partly Cloudy 
 07/03/2021 - 02:00  -12.4°C  -18.0°C  1022.8 hPa  81%  9.6 km/h   14.3 km/h  0%  --  16.1km  24%  Clear 
 07/03/2021 - 03:00  -12.9°C  -18.3°C  1023.4 hPa  82%  9.1 km/h   13.2 km/h  0%  --  16.1km  21%  Clear 
 07/03/2021 - 04:00  -13.4°C  -18.7°C  1024.1 hPa  82%  8.6 km/h   12.6 km/h  0%  --  16.1km  18%  Clear 
 07/03/2021 - 05:00  -13.9°C  -19.0°C  1025.2 hPa  81%  7.9 km/h   11.6 km/h  0%  --  16.1km  14%  Clear 
 07/03/2021 - 06:00  -14.4°C  -19.3°C  1026.2 hPa  80%  7.3 km/h   10.4 km/h  0%  --  16.1km  10%  Clear 
 07/03/2021 - 07:00  -14.8°C  -19.7°C  1027.4 hPa  79%  7.2 km/h   10.5 km/h  0%  --  16.1km  5%  Clear 
 07/03/2021 - 08:00  -14.0°C  -18.5°C  1028.1 hPa  79%  6.7 km/h   9.2 km/h  0%  --  16.1km  3%  Clear 
 07/03/2021 - 09:00  -12.7°C  -16.8°C  1028.6 hPa  77%  6.4 km/h   7.4 km/h  0%  --  16.1km  11%  Clear 
 07/03/2021 - 10:00  -11.6°C  -15.7°C  1028.8 hPa  74%  6.6 km/h   7.1 km/h  0%  --  16.1km  8%  Clear 
 07/03/2021 - 11:00  -10.7°C  -15.3°C  1029.0 hPa  72%  7.8 km/h   9.0 km/h  0%  --  16.1km  42%  Partly Cloudy 
 07/03/2021 - 12:00  -10.0°C  -15.0°C  1029.1 hPa  72%  9.5 km/h   11.3 km/h  0%  --  16.1km  45%  Partly Cloudy 

 

Past weather and reports

Past weatherFind in this section the past weather conditions, weather archive, graphics, reports and statistics.

Current conditions

Current weather condition for MontrealAll you need to know about the current weather conditions for Montreal. Weather data is updated every 10 minutes.

Weather forecast

Current Montreal weatherSince 2004, celinium.com website has provided accurate weather forecast for Montreal's island.